createdAt,value
2023-04-19T00:00:39.153Z,92.47
2023-04-19T00:03:06.997Z,92.28
2023-04-19T00:05:34.255Z,92.40
2023-04-19T00:08:01.385Z,92.24
2023-04-19T00:10:28.459Z,92.44
2023-04-19T00:12:55.869Z,92.35
2023-04-19T00:15:23.001Z,92.58
2023-04-19T00:17:50.178Z,92.29
2023-04-19T00:20:17.362Z,92.05
2023-04-19T00:22:44.420Z,92.12
2023-04-19T00:25:11.621Z,91.58
2023-04-19T00:27:38.858Z,91.90
2023-04-19T00:30:06.418Z,91.72
2023-04-19T00:32:33.517Z,91.29
2023-04-19T00:35:00.644Z,91.10
2023-04-19T00:37:27.752Z,90.52
2023-04-19T00:39:54.857Z,90.56
2023-04-19T00:42:21.992Z,90.20
2023-04-19T00:44:49.068Z,90.19
2023-04-19T00:47:16.249Z,90.14
2023-04-19T00:49:43.500Z,90.05
2023-04-19T00:52:10.631Z,90.24
2023-04-19T00:54:37.764Z,90.29
2023-04-19T00:57:05.655Z,90.06
2023-04-19T00:59:34.380Z,89.86
2023-04-19T01:02:02.119Z,90.15
2023-04-19T01:04:30.158Z,90.55
2023-04-19T01:06:58.386Z,90.61
2023-04-19T01:09:28.392Z,90.34
2023-04-19T01:11:55.853Z,90.04
2023-04-19T01:14:24.183Z,89.89
2023-04-19T01:16:52.346Z,90.37
2023-04-19T01:19:20.479Z,90.00
2023-04-19T01:21:49.787Z,89.75
2023-04-19T01:24:17.912Z,90.09
2023-04-19T01:26:51.075Z,89.58
2023-04-19T01:29:20.790Z,89.66
2023-04-19T01:31:54.168Z,89.82
2023-04-19T01:34:25.745Z,89.81
2023-04-19T01:36:55.250Z,89.56
2023-04-19T01:39:22.464Z,89.39
2023-04-19T01:41:49.547Z,89.50
2023-04-19T01:44:16.844Z,89.62
2023-04-19T01:46:44.022Z,90.23
2023-04-19T01:49:11.157Z,90.40
2023-04-19T01:51:40.268Z,91.33
2023-04-19T01:54:08.500Z,91.54
2023-04-19T01:56:37.169Z,91.80
2023-04-19T01:59:05.016Z,91.91
2023-04-19T02:01:32.819Z,92.12
2023-04-19T02:04:02.610Z,92.55
2023-04-19T02:06:31.020Z,92.10
2023-04-19T02:08:58.229Z,92.08
2023-04-19T02:11:25.452Z,92.01
2023-04-19T02:13:53.056Z,92.33
2023-04-19T02:16:21.521Z,92.08
2023-04-19T02:18:49.377Z,92.13
2023-04-19T02:21:17.386Z,92.52
2023-04-19T02:23:46.030Z,92.20
2023-04-19T02:26:13.502Z,92.35
2023-04-19T02:28:40.560Z,91.87
2023-04-19T02:31:08.854Z,91.51
2023-04-19T02:33:37.856Z,91.38
2023-04-19T02:36:06.513Z,91.90
2023-04-19T02:38:34.824Z,91.91
2023-04-19T02:41:04.748Z,91.83
2023-04-19T02:43:32.020Z,91.97
2023-04-19T02:45:59.165Z,92.01
2023-04-19T02:48:27.204Z,91.74
2023-04-19T02:50:55.303Z,91.18
2023-04-19T02:53:23.145Z,91.27
2023-04-19T02:55:50.657Z,91.14
2023-04-19T02:58:18.600Z,91.64
2023-04-19T03:00:47.029Z,91.82
2023-04-19T03:03:15.223Z,91.79
2023-04-19T03:05:43.819Z,91.46
2023-04-19T03:08:12.655Z,91.41
2023-04-19T03:10:40.926Z,90.68
2023-04-19T03:13:08.300Z,90.42
2023-04-19T03:15:36.656Z,90.25
2023-04-19T03:18:04.606Z,90.08
2023-04-19T03:20:32.428Z,90.05
2023-04-19T03:23:00.707Z,89.71
2023-04-19T03:25:28.510Z,89.78
2023-04-19T03:27:57.308Z,89.76
2023-04-19T03:30:25.179Z,89.94
2023-04-19T03:32:53.505Z,89.52
2023-04-19T03:35:22.444Z,89.99
2023-04-19T03:37:50.795Z,90.01
2023-04-19T03:40:18.730Z,90.62
2023-04-19T03:42:46.601Z,90.46
2023-04-19T03:45:13.751Z,89.87
2023-04-19T03:47:40.850Z,90.17
2023-04-19T03:50:08.465Z,90.18
2023-04-19T03:52:35.538Z,90.23
2023-04-19T03:55:02.686Z,90.38
2023-04-19T03:57:29.723Z,90.74
2023-04-19T03:59:56.780Z,90.56
2023-04-19T04:02:23.955Z,90.64
2023-04-19T04:04:55.083Z,91.19
2023-04-19T04:07:23.184Z,91.40
2023-04-19T04:09:50.624Z,91.55
2023-04-19T04:12:17.672Z,91.69
2023-04-19T04:14:44.784Z,91.54
2023-04-19T04:17:11.806Z,92.10
2023-04-19T04:19:38.844Z,91.38
2023-04-19T04:22:07.054Z,91.26
2023-04-19T04:24:41.471Z,91.50
2023-04-19T04:27:11.934Z,91.88
2023-04-19T04:29:39.732Z,92.57
2023-04-19T04:32:08.706Z,92.13
2023-04-19T04:34:36.742Z,92.63
2023-04-19T04:37:04.129Z,92.29
2023-04-19T04:39:31.263Z,92.37
2023-04-19T04:41:59.618Z,92.77
2023-04-19T04:44:27.752Z,92.04
2023-04-19T04:46:55.264Z,92.47
2023-04-19T04:49:22.628Z,92.39
2023-04-19T04:51:49.690Z,92.09
2023-04-19T04:54:17.205Z,92.78
2023-04-19T04:56:44.553Z,92.56
2023-04-19T04:59:11.644Z,92.36
2023-04-19T05:01:38.791Z,92.98
2023-04-19T05:04:05.963Z,92.21
2023-04-19T05:06:33.030Z,92.40
2023-04-19T05:09:00.068Z,92.95
2023-04-19T05:11:27.319Z,92.44
2023-04-19T05:13:54.468Z,92.14
2023-04-19T05:16:21.767Z,92.06
2023-04-19T05:18:49.505Z,92.15
2023-04-19T05:21:16.560Z,92.04
2023-04-19T05:23:43.610Z,91.38
2023-04-19T05:26:15.335Z,91.78
2023-04-19T05:28:44.136Z,90.72
2023-04-19T05:31:11.851Z,90.75
2023-04-19T05:33:38.956Z,90.13
2023-04-19T05:36:06.653Z,90.57
2023-04-19T05:38:33.694Z,90.21
2023-04-19T05:41:01.058Z,90.29
2023-04-19T05:43:28.461Z,89.33
2023-04-19T05:45:55.554Z,89.88
2023-04-19T05:48:22.691Z,89.55
2023-04-19T05:50:49.762Z,89.06
2023-04-19T05:53:16.874Z,88.26
2023-04-19T05:55:45.555Z,88.19
2023-04-19T05:58:12.942Z,89.16
2023-04-19T06:00:40.076Z,88.67
2023-04-19T06:03:07.656Z,89.13
2023-04-19T06:05:35.453Z,88.47
2023-04-19T06:08:03.194Z,88.44
2023-04-19T06:10:40.445Z,88.52
2023-04-19T06:13:17.584Z,88.77
2023-04-19T06:15:44.769Z,89.02
2023-04-19T06:18:19.537Z,87.99
2023-04-19T06:20:47.188Z,87.67
2023-04-19T06:23:14.907Z,88.20
2023-04-19T06:25:42.251Z,88.38
2023-04-19T06:28:09.764Z,87.66
2023-04-19T06:30:37.047Z,86.93
2023-04-19T06:33:04.211Z,87.03
2023-04-19T06:35:34.343Z,85.57
2023-04-19T06:38:01.357Z,86.16
2023-04-19T06:40:29.380Z,85.31
2023-04-19T06:42:56.460Z,86.71
2023-04-19T06:45:23.635Z,84.89
2023-04-19T06:47:51.004Z,84.29
2023-04-19T06:50:18.417Z,82.27
2023-04-19T06:52:45.634Z,81.31
2023-04-19T06:55:12.751Z,80.72
2023-04-19T06:57:39.802Z,80.19
2023-04-19T07:00:07.849Z,79.28
2023-04-19T07:02:34.969Z,79.30
2023-04-19T07:05:02.200Z,78.04
2023-04-19T07:07:29.672Z,78.91
2023-04-19T07:09:56.717Z,77.14
2023-04-19T07:12:23.779Z,75.70
2023-04-19T07:14:56.234Z,75.22
2023-04-19T07:17:23.946Z,75.25
2023-04-19T07:19:51.047Z,74.87
2023-04-19T07:22:18.112Z,73.22
2023-04-19T07:24:45.237Z,72.80
2023-04-19T07:27:14.317Z,72.17
2023-04-19T07:29:41.472Z,73.29
2023-04-19T07:32:08.862Z,70.23
2023-04-19T07:34:38.206Z,71.99
2023-04-19T07:37:05.306Z,70.57
2023-04-19T07:39:32.907Z,70.87
2023-04-19T07:42:01.672Z,69.68
2023-04-19T07:44:28.695Z,68.28
2023-04-19T07:46:55.868Z,68.24
2023-04-19T07:49:22.958Z,68.25
2023-04-19T07:51:50.671Z,66.26
2023-04-19T07:54:20.206Z,67.71
2023-04-19T07:56:47.254Z,66.47
2023-04-19T07:59:14.326Z,66.75
2023-04-19T08:01:42.683Z,64.10
2023-04-19T08:04:10.044Z,63.90
2023-04-19T08:06:39.772Z,61.98
2023-04-19T08:09:07.128Z,61.57
2023-04-19T08:11:34.258Z,57.05
2023-04-19T08:14:09.267Z,59.57
2023-04-19T08:19:19.059Z,57.48
2023-04-19T08:21:46.198Z,55.75
2023-04-19T08:24:13.274Z,56.50
2023-04-19T08:26:40.475Z,55.77
2023-04-19T08:29:07.671Z,55.82
2023-04-19T08:31:35.329Z,56.95
2023-04-19T08:34:03.081Z,55.07
2023-04-19T08:36:39.068Z,56.81
2023-04-19T08:39:14.628Z,54.42
2023-04-19T08:41:59.067Z,53.21
2023-04-19T08:44:36.508Z,52.89
2023-04-19T08:47:05.160Z,51.92
2023-04-19T08:49:36.126Z,51.44
2023-04-19T08:52:03.347Z,51.60
2023-04-19T08:54:30.595Z,51.17
2023-04-19T08:57:01.975Z,50.08
2023-04-19T08:59:30.887Z,50.75
2023-04-19T09:02:01.204Z,49.71
2023-04-19T09:07:01.547Z,49.61
2023-04-19T09:12:00.720Z,47.95
2023-04-19T09:14:30.037Z,47.42
2023-04-19T09:17:17.088Z,49.25
2023-04-19T09:19:50.595Z,48.44
2023-04-19T09:22:18.136Z,48.79
2023-04-19T09:27:25.526Z,48.54
2023-04-19T09:29:54.274Z,48.13
2023-04-19T09:32:22.232Z,49.08
2023-04-19T09:35:07.624Z,48.31
2023-04-19T09:40:25.036Z,48.34
2023-04-19T09:48:09.822Z,49.62
2023-04-19T09:50:58.993Z,50.88
2023-04-19T09:53:34.009Z,50.96
2023-04-19T09:56:03.091Z,51.71
2023-04-19T10:01:13.541Z,49.62
2023-04-19T10:03:45.360Z,51.00
2023-04-19T10:08:49.562Z,49.51
2023-04-19T10:11:17.587Z,52.03
2023-04-19T10:13:45.327Z,50.82
2023-04-19T10:16:19.390Z,52.31
2023-04-19T10:18:50.291Z,51.74
2023-04-19T10:21:19.388Z,49.35
2023-04-19T10:23:47.181Z,48.11
2023-04-19T10:26:14.507Z,49.92
2023-04-19T10:28:42.158Z,48.29
2023-04-19T10:31:12.957Z,47.72
2023-04-19T10:33:41.444Z,48.72
2023-04-19T10:36:09.932Z,49.65
2023-04-19T10:38:48.225Z,47.67
2023-04-19T10:41:17.542Z,47.80
2023-04-19T10:44:09.180Z,48.31
2023-04-19T10:46:38.097Z,49.92
2023-04-19T10:49:05.991Z,49.49
2023-04-19T10:51:38.811Z,49.09
2023-04-19T10:54:06.825Z,48.39
2023-04-19T10:56:34.153Z,48.77
2023-04-19T10:59:01.298Z,48.20
2023-04-19T11:01:46.545Z,48.61
2023-04-19T11:04:21.471Z,49.31
2023-04-19T11:06:54.636Z,50.48
2023-04-19T11:09:36.073Z,51.42
2023-04-19T11:12:11.207Z,51.20
2023-04-19T11:14:42.472Z,48.69
2023-04-19T11:17:17.240Z,48.85
2023-04-19T11:19:47.440Z,50.02
2023-04-19T11:22:14.827Z,50.94
2023-04-19T11:24:46.232Z,51.32
2023-04-19T11:27:13.325Z,49.49
2023-04-19T11:29:40.379Z,49.97
2023-04-19T11:32:07.987Z,48.85
2023-04-19T11:34:39.165Z,49.35
2023-04-19T11:37:06.262Z,48.96
2023-04-19T11:39:33.300Z,48.98
2023-04-19T11:42:00.803Z,48.58
2023-04-19T11:44:28.094Z,48.48
2023-04-19T11:47:04.092Z,48.30
2023-04-19T11:49:33.137Z,48.22
2023-04-19T11:52:04.684Z,47.60
2023-04-19T11:54:33.091Z,46.31
2023-04-19T11:57:07.274Z,47.44
2023-04-19T11:59:37.188Z,48.29
2023-04-19T12:02:11.523Z,47.78
2023-04-19T12:04:39.901Z,48.79
2023-04-19T12:07:07.370Z,48.73
2023-04-19T12:09:35.977Z,49.34
2023-04-19T12:12:03.581Z,48.67
2023-04-19T12:14:31.563Z,49.68
2023-04-19T12:17:07.964Z,48.90
2023-04-19T12:19:42.470Z,48.51
2023-04-19T12:22:13.797Z,48.43
2023-04-19T12:24:41.400Z,49.16
2023-04-19T12:27:09.159Z,49.68
2023-04-19T12:29:38.452Z,50.08
2023-04-19T12:32:06.242Z,50.93
2023-04-19T12:34:33.617Z,52.04
2023-04-19T12:37:02.661Z,53.14
2023-04-19T12:39:30.264Z,52.98
2023-04-19T12:41:57.519Z,54.30
2023-04-19T12:44:24.677Z,54.31
2023-04-19T12:46:52.036Z,51.52
2023-04-19T12:49:20.051Z,49.99
2023-04-19T12:51:47.756Z,50.34
2023-04-19T12:54:15.485Z,49.68
2023-04-19T12:56:42.723Z,49.41
2023-04-19T12:59:10.072Z,49.58
2023-04-19T13:01:37.213Z,50.11
2023-04-19T13:04:04.602Z,50.83
2023-04-19T13:06:31.804Z,52.14
2023-04-19T13:09:01.153Z,52.61
2023-04-19T13:11:28.645Z,53.21
2023-04-19T13:13:55.880Z,53.67
2023-04-19T13:16:23.130Z,58.49
2023-04-19T13:18:52.354Z,64.79
2023-04-19T13:21:19.672Z,65.22
2023-04-19T13:23:46.713Z,65.58
2023-04-19T13:26:14.257Z,65.29
2023-04-19T13:28:42.403Z,64.91
2023-04-19T13:31:09.581Z,65.90
2023-04-19T13:33:37.001Z,67.03
2023-04-19T13:36:04.267Z,66.00
2023-04-19T13:38:31.445Z,66.17
2023-04-19T13:40:59.209Z,66.41
2023-04-19T13:43:26.503Z,65.22
2023-04-19T13:45:53.974Z,65.62
2023-04-19T13:48:21.562Z,64.64
2023-04-19T13:50:50.892Z,65.92
2023-04-19T13:53:18.348Z,64.54
2023-04-19T13:55:45.453Z,65.78
2023-04-19T13:58:12.631Z,64.88
2023-04-19T14:00:39.817Z,63.14
2023-04-19T14:03:07.075Z,62.55
2023-04-19T14:05:34.171Z,62.51
2023-04-19T14:08:01.678Z,61.22
2023-04-19T14:10:28.798Z,62.01
2023-04-19T14:12:55.937Z,62.01
2023-04-19T14:15:24.152Z,61.70
2023-04-19T14:17:51.865Z,65.90
2023-04-19T14:20:19.240Z,68.91
2023-04-19T14:22:46.611Z,70.89
2023-04-19T14:25:18.132Z,71.33
2023-04-19T14:27:45.230Z,72.38
2023-04-19T14:30:12.642Z,73.17
2023-04-19T14:32:39.769Z,73.22
2023-04-19T14:35:08.535Z,73.84
2023-04-19T14:37:35.695Z,73.55
2023-04-19T14:40:03.373Z,74.75
2023-04-19T14:42:30.487Z,74.76
2023-04-19T14:44:58.384Z,74.67
2023-04-19T14:47:25.937Z,74.08
2023-04-19T14:49:53.123Z,72.49
2023-04-19T14:52:20.277Z,71.39
2023-04-19T14:54:47.339Z,70.29
2023-04-19T14:57:15.028Z,68.46
2023-04-19T14:59:42.261Z,67.92
2023-04-19T15:02:10.891Z,67.96
2023-04-19T15:04:40.973Z,68.43
2023-04-19T15:07:08.725Z,67.42
2023-04-19T15:09:35.795Z,69.70
2023-04-19T15:12:03.221Z,68.27
2023-04-19T15:14:30.443Z,70.38
2023-04-19T15:16:57.525Z,71.35
2023-04-19T15:19:24.948Z,73.19
2023-04-19T15:21:52.080Z,74.50
2023-04-19T15:24:19.219Z,75.12
2023-04-19T15:26:46.337Z,74.01
2023-04-19T15:29:13.460Z,74.57
2023-04-19T15:31:40.835Z,74.82
2023-04-19T15:34:08.124Z,73.40
2023-04-19T15:36:35.354Z,74.65
2023-04-19T15:39:02.556Z,73.91
2023-04-19T15:41:29.649Z,74.32
2023-04-19T15:43:57.337Z,74.29
2023-04-19T15:46:24.457Z,74.68
2023-04-19T15:48:51.594Z,74.80
2023-04-19T15:51:18.685Z,73.56
2023-04-19T15:53:45.808Z,73.07
2023-04-19T15:56:12.852Z,73.02
2023-04-19T15:58:40.726Z,73.36
2023-04-19T16:01:12.403Z,73.06
2023-04-19T16:03:41.460Z,74.35
2023-04-19T16:06:08.734Z,74.37
2023-04-19T16:08:36.092Z,75.24
2023-04-19T16:11:05.228Z,75.46
2023-04-19T16:13:32.800Z,76.95
2023-04-19T16:16:01.342Z,76.93
2023-04-19T16:18:28.565Z,77.48
2023-04-19T16:20:55.738Z,78.46
2023-04-19T16:23:24.522Z,77.65
2023-04-19T16:25:52.669Z,78.46
2023-04-19T16:28:20.441Z,79.15
2023-04-19T16:30:47.964Z,78.22
2023-04-19T16:33:15.738Z,77.11
2023-04-19T16:35:43.429Z,76.50
2023-04-19T16:38:10.852Z,77.24
2023-04-19T16:40:37.951Z,77.00
2023-04-19T16:43:06.587Z,77.69
2023-04-19T16:45:33.925Z,77.25
2023-04-19T16:48:01.157Z,78.63
2023-04-19T16:50:28.432Z,79.59
2023-04-19T16:52:55.663Z,80.42
2023-04-19T16:55:22.923Z,80.24
2023-04-19T16:57:51.226Z,80.31
2023-04-19T17:00:19.142Z,80.38
2023-04-19T17:02:46.298Z,80.68
2023-04-19T17:05:15.882Z,80.68
2023-04-19T17:07:45.954Z,79.81
2023-04-19T17:10:13.610Z,79.87
2023-04-19T17:12:41.081Z,79.66
2023-04-19T17:15:08.821Z,81.01
2023-04-19T17:17:35.936Z,80.08
2023-04-19T17:20:05.326Z,80.45
2023-04-19T17:22:33.240Z,80.95
2023-04-19T17:25:00.450Z,81.11
2023-04-19T17:27:27.839Z,78.98
2023-04-19T17:29:55.408Z,79.44
2023-04-19T17:32:22.475Z,79.32
2023-04-19T17:34:49.541Z,79.31
2023-04-19T17:37:16.854Z,78.80
2023-04-19T17:39:44.243Z,79.20
2023-04-19T17:42:11.250Z,78.47
2023-04-19T17:44:38.567Z,78.94
2023-04-19T17:47:05.691Z,79.18
2023-04-19T17:49:32.745Z,78.64
2023-04-19T17:51:59.856Z,79.24
2023-04-19T17:54:26.924Z,78.27
2023-04-19T17:56:54.574Z,78.62
2023-04-19T17:59:21.669Z,77.51
2023-04-19T18:01:48.894Z,77.65
2023-04-19T18:04:19.773Z,78.97
2023-04-19T18:06:47.234Z,77.68
2023-04-19T18:09:14.904Z,78.16
2023-04-19T18:11:42.512Z,77.32
2023-04-19T18:14:09.690Z,78.00
2023-04-19T18:16:36.950Z,78.13
2023-04-19T18:19:04.187Z,77.10
2023-04-19T18:21:31.328Z,76.77
2023-04-19T18:23:58.362Z,77.53
2023-04-19T18:26:25.440Z,78.41
2023-04-19T18:28:52.505Z,78.01
2023-04-19T18:31:19.557Z,78.38
2023-04-19T18:33:46.877Z,78.08
2023-04-19T18:36:17.164Z,78.21
2023-04-19T18:38:44.192Z,78.37
2023-04-19T18:41:11.302Z,77.91
2023-04-19T18:43:38.907Z,79.00
2023-04-19T18:46:06.210Z,77.97
2023-04-19T18:48:33.334Z,78.14
2023-04-19T18:51:00.361Z,78.66
2023-04-19T18:53:28.589Z,79.00
2023-04-19T18:55:57.679Z,78.74
2023-04-19T18:58:26.126Z,78.92
2023-04-19T19:00:53.760Z,78.09
2023-04-19T19:05:54.726Z,79.35
2023-04-19T19:08:21.996Z,78.22
2023-04-19T19:11:14.333Z,78.67
2023-04-19T19:13:36.361Z,78.11
2023-04-19T19:16:05.284Z,77.13
2023-04-19T19:18:32.623Z,76.82
2023-04-19T19:21:03.199Z,77.00
2023-04-19T19:26:01.137Z,77.65
2023-04-19T19:28:28.223Z,78.08
2023-04-19T19:30:55.366Z,77.79
2023-04-19T19:33:22.547Z,77.63
2023-04-19T19:35:49.582Z,77.26
2023-04-19T19:38:16.662Z,78.65
2023-04-19T19:41:22.175Z,78.02
2023-04-19T19:43:30.953Z,77.32
2023-04-19T19:45:58.310Z,77.13
2023-04-19T19:48:26.015Z,76.89
2023-04-19T19:53:23.325Z,76.59
2023-04-19T19:55:50.826Z,77.49
2023-04-19T19:58:42.958Z,77.45
2023-04-19T20:01:06.288Z,77.94
2023-04-19T20:03:37.327Z,76.95
2023-04-19T20:06:35.806Z,77.03
2023-04-19T20:08:56.245Z,77.54
2023-04-19T20:11:24.768Z,77.82
2023-04-19T20:13:51.953Z,77.76
2023-04-19T20:16:19.643Z,77.95
2023-04-19T20:18:49.088Z,77.44
2023-04-19T20:21:17.886Z,76.92
2023-04-19T20:23:45.432Z,76.41
2023-04-19T20:26:13.323Z,76.85
2023-04-19T20:28:40.377Z,76.60
2023-04-19T20:31:07.455Z,76.75
2023-04-19T20:33:34.575Z,77.23
2023-04-19T20:36:01.957Z,77.63
2023-04-19T20:38:29.501Z,76.60
2023-04-19T20:40:57.085Z,76.20
2023-04-19T20:43:24.157Z,76.67
2023-04-19T20:45:51.264Z,76.37
2023-04-19T20:48:18.462Z,76.57
2023-04-19T20:50:45.596Z,77.71
2023-04-19T20:53:12.666Z,78.12
2023-04-19T20:55:42.140Z,78.54
2023-04-19T20:58:10.138Z,78.08
2023-04-19T21:00:37.168Z,78.58
2023-04-19T21:03:05.981Z,79.26
2023-04-19T21:05:35.062Z,78.86
2023-04-19T21:08:02.338Z,79.10
2023-04-19T21:10:29.405Z,79.01
2023-04-19T21:12:56.445Z,78.94
2023-04-19T21:15:23.567Z,78.92
2023-04-19T21:17:50.730Z,78.54
2023-04-19T21:20:18.219Z,78.65
2023-04-19T21:22:47.035Z,78.34
2023-04-19T21:25:14.191Z,79.13
2023-04-19T21:27:41.749Z,79.11
2023-04-19T21:30:11.578Z,78.85
2023-04-19T21:32:38.766Z,79.11
2023-04-19T21:35:07.305Z,79.21
2023-04-19T21:37:36.520Z,79.25
2023-04-19T21:40:03.850Z,79.78
2023-04-19T21:42:31.222Z,79.34
2023-04-19T21:44:58.254Z,78.66
2023-04-19T21:47:26.420Z,79.10
2023-04-19T21:49:53.886Z,78.81
2023-04-19T21:52:21.278Z,78.68
2023-04-19T21:54:49.250Z,78.60
2023-04-19T21:57:17.607Z,78.88
2023-04-19T21:59:44.674Z,78.77
2023-04-19T22:02:11.907Z,79.27
2023-04-19T22:04:39.550Z,78.90
2023-04-19T22:07:07.684Z,78.41
2023-04-19T22:09:34.752Z,78.71
2023-04-19T22:12:01.886Z,77.89
2023-04-19T22:14:30.656Z,78.02
2023-04-19T22:16:59.762Z,79.29
2023-04-19T22:19:26.986Z,79.31
2023-04-19T22:21:55.007Z,79.17
2023-04-19T22:24:22.386Z,78.87
2023-04-19T22:26:50.126Z,79.32
2023-04-19T22:29:17.459Z,78.98
2023-04-19T22:31:44.742Z,79.49
2023-04-19T22:34:11.808Z,79.24
2023-04-19T22:36:38.868Z,79.51
2023-04-19T22:39:05.942Z,78.84
2023-04-19T22:41:33.055Z,78.86
2023-04-19T22:44:00.405Z,78.91
2023-04-19T22:46:27.617Z,78.99
2023-04-19T22:48:56.067Z,78.64
2023-04-19T22:51:24.435Z,78.31
2023-04-19T22:53:51.525Z,78.57
2023-04-19T22:56:18.636Z,78.58
2023-04-19T22:58:45.781Z,78.35
2023-04-19T23:01:12.966Z,78.52
2023-04-19T23:03:40.238Z,78.30
2023-04-19T23:06:08.074Z,78.70
2023-04-19T23:08:35.172Z,79.88
2023-04-19T23:11:02.233Z,79.01
2023-04-19T23:13:29.303Z,79.22
2023-04-19T23:15:56.428Z,77.60
2023-04-19T23:18:23.610Z,77.89
2023-04-19T23:20:50.753Z,77.25
2023-04-19T23:23:19.813Z,77.15
2023-04-19T23:25:46.923Z,77.19
2023-04-19T23:28:13.970Z,78.05
2023-04-19T23:30:41.127Z,77.80
2023-04-19T23:33:08.151Z,77.96
2023-04-19T23:35:35.406Z,77.90
2023-04-19T23:38:02.656Z,77.75
2023-04-19T23:40:29.681Z,77.47
2023-04-19T23:42:56.746Z,77.92
2023-04-19T23:45:23.993Z,78.25
2023-04-19T23:47:51.084Z,77.70
2023-04-19T23:50:18.157Z,79.27
2023-04-19T23:52:45.479Z,79.06
2023-04-19T23:55:13.057Z,79.19
2023-04-19T23:57:40.404Z,79.53
